createdAt,value
2023-01-19T00:01:26.795Z,9.63
2023-01-19T00:03:53.624Z,9.82
2023-01-19T00:06:20.468Z,8.90
2023-01-19T00:08:48.736Z,9.27
2023-01-19T00:11:17.470Z,10.68
2023-01-19T00:13:50.845Z,9.38
2023-01-19T00:16:19.261Z,9.30
2023-01-19T00:18:46.239Z,8.93
2023-01-19T00:21:17.236Z,9.00
2023-01-19T00:23:47.484Z,9.18
2023-01-19T00:26:17.520Z,8.93
2023-01-19T00:28:44.835Z,8.50
2023-01-19T00:31:12.200Z,8.47
2023-01-19T00:33:38.842Z,8.35
2023-01-19T00:36:05.648Z,9.52
2023-01-19T00:38:32.365Z,8.93
2023-01-19T00:40:59.001Z,8.32
2023-01-19T00:43:25.568Z,8.43
2023-01-19T00:45:53.576Z,7.82
2023-01-19T00:48:20.273Z,8.40
2023-01-19T00:50:48.104Z,7.55
2023-01-19T00:53:17.777Z,7.68
2023-01-19T00:55:44.631Z,7.73
2023-01-19T00:58:11.309Z,8.65
2023-01-19T01:00:37.925Z,7.43
2023-01-19T01:03:05.322Z,7.90
2023-01-19T01:05:32.142Z,8.27
2023-01-19T01:08:00.666Z,8.70
2023-01-19T01:10:29.220Z,8.20
2023-01-19T01:12:57.783Z,8.15
2023-01-19T01:15:26.364Z,8.77
2023-01-19T01:17:53.154Z,8.32
2023-01-19T01:20:23.688Z,7.93
2023-01-19T01:22:52.937Z,7.22
2023-01-19T01:25:22.514Z,7.63
2023-01-19T01:27:49.712Z,7.72
2023-01-19T01:30:16.438Z,8.30
2023-01-19T01:32:43.752Z,8.43
2023-01-19T01:35:11.727Z,7.82
2023-01-19T01:37:38.910Z,8.55
2023-01-19T01:40:06.780Z,8.30
2023-01-19T01:42:34.033Z,7.78
2023-01-19T01:45:05.996Z,7.73
2023-01-19T01:47:46.637Z,7.28
2023-01-19T01:50:22.215Z,7.60
2023-01-19T01:53:13.531Z,7.53
2023-01-19T01:55:45.529Z,7.05
2023-01-19T01:58:13.273Z,7.43
2023-01-19T02:00:58.893Z,7.75
2023-01-19T02:03:26.798Z,8.13
2023-01-19T02:06:00.464Z,7.80
2023-01-19T02:09:13.367Z,7.82
2023-01-19T02:12:00.401Z,7.13
2023-01-19T02:14:27.297Z,7.35
2023-01-19T02:16:54.085Z,7.63
2023-01-19T02:19:39.235Z,7.57
2023-01-19T02:22:17.803Z,7.43
2023-01-19T02:24:44.611Z,7.07
2023-01-19T02:27:12.374Z,7.53
2023-01-19T02:29:39.608Z,7.50
2023-01-19T02:32:07.424Z,7.72
2023-01-19T02:34:36.407Z,7.07
2023-01-19T02:37:09.907Z,8.00
2023-01-19T02:39:41.754Z,6.88
2023-01-19T02:42:13.432Z,7.53
2023-01-19T02:44:44.054Z,7.43
2023-01-19T02:47:11.088Z,7.30
2023-01-19T02:49:37.766Z,7.13
2023-01-19T02:52:05.957Z,6.82
2023-01-19T02:54:51.616Z,6.95
2023-01-19T02:57:51.414Z,7.00
2023-01-19T03:00:27.141Z,7.38
2023-01-19T03:03:13.189Z,6.37
2023-01-19T03:05:54.282Z,6.97
2023-01-19T03:08:44.019Z,6.70
2023-01-19T03:11:13.474Z,6.78
2023-01-19T03:13:49.459Z,7.50
2023-01-19T03:16:31.861Z,6.27
2023-01-19T03:19:06.464Z,6.63
2023-01-19T03:21:35.655Z,7.47
2023-01-19T03:24:06.263Z,6.82
2023-01-19T03:26:38.908Z,7.45
2023-01-19T03:29:07.851Z,7.23
2023-01-19T03:31:36.742Z,7.05
2023-01-19T03:34:06.810Z,6.95
2023-01-19T03:36:42.611Z,6.88
2023-01-19T03:39:11.282Z,7.03
2023-01-19T03:41:39.657Z,7.13
2023-01-19T03:44:07.709Z,6.43
2023-01-19T03:46:34.582Z,7.00
2023-01-19T03:49:01.261Z,7.38
2023-01-19T03:51:27.906Z,7.00
2023-01-19T03:53:54.646Z,7.13
2023-01-19T03:56:25.524Z,6.10
2023-01-19T03:58:52.444Z,6.70
2023-01-19T04:01:23.374Z,6.82
2023-01-19T04:03:51.395Z,7.50
2023-01-19T04:06:18.971Z,7.27
2023-01-19T04:08:48.819Z,7.45
2023-01-19T04:11:16.128Z,7.05
2023-01-19T04:13:42.948Z,8.98
2023-01-19T04:16:10.141Z,8.25
2023-01-19T04:18:36.848Z,8.27
2023-01-19T04:21:06.061Z,8.63
2023-01-19T04:23:33.714Z,8.27
2023-01-19T04:26:02.944Z,8.25
2023-01-19T04:28:30.057Z,8.45
2023-01-19T04:30:56.962Z,8.97
2023-01-19T04:33:24.152Z,9.63
2023-01-19T04:35:54.352Z,9.32
2023-01-19T04:38:21.615Z,9.00
2023-01-19T04:40:52.811Z,9.15
2023-01-19T04:43:20.455Z,8.87
2023-01-19T04:45:47.643Z,9.05
2023-01-19T04:48:14.553Z,9.93
2023-01-19T04:50:44.191Z,10.52
2023-01-19T04:53:13.530Z,10.50
2023-01-19T04:55:40.680Z,10.50
2023-01-19T04:58:08.368Z,10.05
2023-01-19T05:00:35.539Z,10.43
2023-01-19T05:03:02.720Z,10.35
2023-01-19T05:05:29.953Z,11.93
2023-01-19T05:07:56.640Z,10.67
2023-01-19T05:10:23.798Z,10.52
2023-01-19T05:12:51.246Z,10.82
2023-01-19T05:15:18.291Z,10.40
2023-01-19T05:17:45.244Z,10.45
2023-01-19T05:20:14.992Z,10.80
2023-01-19T05:22:48.806Z,9.77
2023-01-19T05:25:15.561Z,10.43
2023-01-19T05:27:43.163Z,9.82
2023-01-19T05:30:10.760Z,10.13
2023-01-19T05:32:37.405Z,10.37
2023-01-19T05:35:04.618Z,11.23
2023-01-19T05:37:32.647Z,11.27
2023-01-19T05:39:59.281Z,11.52
2023-01-19T05:42:25.807Z,9.82
2023-01-19T05:44:52.846Z,10.17
2023-01-19T05:47:19.479Z,9.45
2023-01-19T05:49:46.085Z,10.50
2023-01-19T05:52:12.870Z,9.27
2023-01-19T05:54:40.353Z,9.98
2023-01-19T05:57:07.503Z,9.13
2023-01-19T05:59:34.872Z,10.75
2023-01-19T06:02:01.798Z,12.50
2023-01-19T06:04:28.426Z,10.38
2023-01-19T06:06:55.052Z,10.38
2023-01-19T06:09:21.807Z,9.40
2023-01-19T06:11:48.635Z,10.40
2023-01-19T06:14:15.258Z,11.80
2023-01-19T06:16:41.907Z,10.57
2023-01-19T06:19:08.469Z,10.93
2023-01-19T06:21:35.042Z,10.70
2023-01-19T06:24:02.069Z,10.52
2023-01-19T06:26:28.674Z,10.65
2023-01-19T06:28:55.728Z,11.27
2023-01-19T06:31:22.583Z,10.35
2023-01-19T06:33:49.854Z,11.07
2023-01-19T06:36:16.395Z,10.70
2023-01-19T06:38:43.029Z,9.95
2023-01-19T06:41:09.597Z,10.57
2023-01-19T06:43:36.204Z,10.43
2023-01-19T06:46:03.494Z,10.50
2023-01-19T06:48:30.138Z,9.75
2023-01-19T06:50:58.732Z,11.00
2023-01-19T06:53:27.928Z,10.70
2023-01-19T06:56:01.774Z,11.30
2023-01-19T06:58:29.671Z,9.83
2023-01-19T07:01:00.451Z,10.40
2023-01-19T07:03:27.137Z,9.85
2023-01-19T07:05:54.097Z,9.35
2023-01-19T07:08:20.842Z,10.45
2023-01-19T07:11:26.650Z,11.57
2023-01-19T07:13:35.579Z,11.27
2023-01-19T07:16:10.776Z,10.95
2023-01-19T07:18:38.395Z,10.68
2023-01-19T07:21:05.570Z,10.73
2023-01-19T07:23:32.542Z,10.57
2023-01-19T07:26:03.433Z,8.77
2023-01-19T07:28:31.079Z,10.05
2023-01-19T07:30:57.918Z,10.45
2023-01-19T07:33:28.666Z,10.30
2023-01-19T07:35:55.515Z,10.37
2023-01-19T07:38:22.430Z,9.43
2023-01-19T07:40:48.987Z,10.60
2023-01-19T07:43:16.012Z,9.68
2023-01-19T07:45:43.138Z,9.27
2023-01-19T07:48:12.644Z,10.63
2023-01-19T07:50:39.395Z,11.25
2023-01-19T07:53:08.027Z,10.93
2023-01-19T07:55:34.782Z,11.07
2023-01-19T07:58:01.597Z,10.15
2023-01-19T08:00:28.254Z,11.40
2023-01-19T08:03:01.170Z,11.10
2023-01-19T08:05:33.530Z,11.80
2023-01-19T08:08:00.645Z,11.27
2023-01-19T08:10:28.827Z,11.48
2023-01-19T08:12:56.969Z,10.70
2023-01-19T08:15:24.755Z,10.77
2023-01-19T08:18:00.564Z,11.48
2023-01-19T08:20:28.649Z,10.63
2023-01-19T08:23:00.087Z,11.05
2023-01-19T08:25:33.043Z,10.93
2023-01-19T08:27:59.950Z,10.73
2023-01-19T08:30:26.801Z,10.27
2023-01-19T08:33:04.046Z,10.90
2023-01-19T08:35:32.044Z,10.27
2023-01-19T08:38:01.270Z,10.43
2023-01-19T08:40:35.495Z,10.13
2023-01-19T08:43:07.887Z,10.57
2023-01-19T08:45:36.356Z,9.95
2023-01-19T08:48:03.443Z,5.75
2023-01-19T08:50:31.894Z,11.00
2023-01-19T08:53:00.600Z,9.07
2023-01-19T08:55:28.381Z,7.63
2023-01-19T08:58:00.162Z,8.52
2023-01-19T09:00:27.587Z,8.77
2023-01-19T09:02:54.493Z,8.90
2023-01-19T09:05:21.409Z,11.13
2023-01-19T09:07:48.244Z,9.52
2023-01-19T09:10:16.032Z,9.20
2023-01-19T09:12:44.869Z,9.35
2023-01-19T09:15:13.799Z,12.33
2023-01-19T09:17:42.281Z,8.15
2023-01-19T09:20:09.538Z,8.10
2023-01-19T09:22:36.224Z,8.52
2023-01-19T09:25:02.928Z,9.05
2023-01-19T09:27:29.479Z,7.77
2023-01-19T09:29:56.135Z,8.32
2023-01-19T09:32:22.967Z,7.82
2023-01-19T09:34:50.531Z,8.00
2023-01-19T09:37:17.270Z,6.97
2023-01-19T09:39:44.070Z,6.73
2023-01-19T09:42:20.139Z,6.85
2023-01-19T09:44:49.112Z,6.72
2023-01-19T09:47:19.998Z,7.45
2023-01-19T09:49:52.249Z,4.55
2023-01-19T09:52:20.382Z,7.00
2023-01-19T09:54:53.106Z,6.72
2023-01-19T09:57:21.368Z,7.68
2023-01-19T09:59:50.762Z,7.20
2023-01-19T10:02:47.646Z,7.13
2023-01-19T10:05:23.225Z,6.73
2023-01-19T10:08:16.974Z,8.38
2023-01-19T10:10:51.855Z,7.75
2023-01-19T10:13:48.748Z,5.70
2023-01-19T10:16:27.468Z,5.70
2023-01-19T10:18:57.513Z,6.23
2023-01-19T10:21:33.514Z,5.55
2023-01-19T10:24:06.582Z,6.82
2023-01-19T10:26:43.704Z,5.75
2023-01-19T10:29:36.171Z,6.13
2023-01-19T10:32:19.760Z,6.00
2023-01-19T10:34:47.620Z,5.22
2023-01-19T10:37:40.469Z,4.80
2023-01-19T10:40:10.152Z,4.88
2023-01-19T10:42:39.001Z,5.50
2023-01-19T10:45:16.854Z,5.47
2023-01-19T10:47:47.384Z,5.40
2023-01-19T10:50:23.611Z,5.32
2023-01-19T10:52:56.090Z,5.15
2023-01-19T10:55:43.914Z,3.83
2023-01-19T10:58:42.904Z,5.23
2023-01-19T11:01:18.451Z,5.20
2023-01-19T11:03:46.075Z,2.45
2023-01-19T11:06:15.503Z,3.97
2023-01-19T11:08:43.918Z,3.83
2023-01-19T11:11:12.412Z,5.33
2023-01-19T11:13:40.457Z,4.68
2023-01-19T11:16:16.235Z,4.82
2023-01-19T11:18:44.224Z,4.80
2023-01-19T11:21:14.649Z,5.28
2023-01-19T11:23:46.338Z,4.80
2023-01-19T11:26:28.784Z,4.60
2023-01-19T11:28:57.536Z,5.10
2023-01-19T11:31:34.542Z,5.32
2023-01-19T11:34:06.022Z,5.20
2023-01-19T11:36:36.743Z,5.20
2023-01-19T11:39:12.293Z,4.90
2023-01-19T11:41:40.064Z,4.30
2023-01-19T11:44:22.633Z,4.93
2023-01-19T11:46:54.564Z,3.75
2023-01-19T11:49:49.546Z,4.97
2023-01-19T11:52:22.255Z,5.13
2023-01-19T11:54:56.152Z,5.38
2023-01-19T11:57:22.878Z,4.47
2023-01-19T11:59:52.393Z,4.68
2023-01-19T12:02:31.982Z,5.40
2023-01-19T12:05:04.735Z,5.22
2023-01-19T12:07:34.836Z,5.07
2023-01-19T12:10:32.809Z,5.55
2023-01-19T12:13:00.439Z,3.10
2023-01-19T12:15:30.031Z,4.03
2023-01-19T12:18:00.807Z,4.45
2023-01-19T12:20:40.654Z,3.90
2023-01-19T12:23:36.081Z,4.65
2023-01-19T12:26:33.639Z,4.60
2023-01-19T12:29:06.330Z,5.10
2023-01-19T12:31:33.711Z,4.80
2023-01-19T12:34:24.987Z,4.57
2023-01-19T12:36:55.356Z,4.90
2023-01-19T12:39:25.465Z,4.95
2023-01-19T12:42:17.578Z,5.07
2023-01-19T12:44:47.048Z,4.95
2023-01-19T12:47:13.599Z,5.32
2023-01-19T12:49:43.962Z,5.90
2023-01-19T12:52:25.105Z,5.03
2023-01-19T12:55:31.017Z,4.97
2023-01-19T12:58:17.735Z,5.38
2023-01-19T13:01:10.892Z,4.32
2023-01-19T13:03:58.535Z,5.10
2023-01-19T13:06:46.956Z,4.80
2023-01-19T13:09:33.779Z,5.27
2023-01-19T13:12:23.197Z,4.35
2023-01-19T13:14:50.801Z,4.82
2023-01-19T13:17:49.060Z,4.20
2023-01-19T13:20:22.924Z,5.22
2023-01-19T13:22:51.437Z,5.10
2023-01-19T13:25:31.480Z,5.78
2023-01-19T13:27:58.640Z,3.75
2023-01-19T13:30:28.648Z,4.90
2023-01-19T13:33:09.321Z,5.05
2023-01-19T13:35:35.964Z,5.32
2023-01-19T13:38:03.372Z,4.68
2023-01-19T13:40:40.600Z,5.30
2023-01-19T13:43:19.440Z,5.72
2023-01-19T13:45:52.398Z,5.90
2023-01-19T13:48:22.647Z,5.50
2023-01-19T13:51:07.045Z,5.68
2023-01-19T13:53:34.480Z,5.28
2023-01-19T13:56:17.463Z,5.22
2023-01-19T13:58:56.691Z,4.10
2023-01-19T14:01:23.799Z,4.97
2023-01-19T14:03:54.834Z,4.57
2023-01-19T14:06:45.375Z,4.65
2023-01-19T14:09:16.825Z,4.03
2023-01-19T14:11:46.324Z,4.80
2023-01-19T14:14:24.106Z,2.63
2023-01-19T14:16:50.771Z,5.47
2023-01-19T14:19:17.437Z,5.13
2023-01-19T14:21:44.609Z,5.60
2023-01-19T14:24:20.749Z,6.25
2023-01-19T14:26:53.765Z,4.33
2023-01-19T14:29:28.995Z,4.13
2023-01-19T14:32:01.628Z,5.03
2023-01-19T14:34:44.248Z,5.50
2023-01-19T14:37:47.170Z,4.50
2023-01-19T14:40:19.662Z,4.53
2023-01-19T14:42:55.076Z,4.72
2023-01-19T14:45:35.246Z,4.72
2023-01-19T14:48:03.954Z,4.85
2023-01-19T14:50:37.350Z,4.75
2023-01-19T14:53:21.150Z,5.50
2023-01-19T14:55:49.148Z,4.75
2023-01-19T14:58:18.562Z,5.45
2023-01-19T15:00:47.212Z,5.32
2023-01-19T15:03:14.692Z,5.15
2023-01-19T15:05:46.824Z,5.40
2023-01-19T15:08:27.202Z,4.55
2023-01-19T15:10:54.039Z,5.38
2023-01-19T15:13:23.677Z,5.50
2023-01-19T15:15:50.831Z,5.68
2023-01-19T15:18:22.105Z,5.97
2023-01-19T15:20:48.661Z,6.18
2023-01-19T15:23:15.239Z,5.70
2023-01-19T15:25:41.982Z,5.90
2023-01-19T15:28:17.241Z,6.22
2023-01-19T15:30:44.044Z,6.63
2023-01-19T15:33:30.899Z,7.35
2023-01-19T15:35:57.716Z,7.28
2023-01-19T15:38:24.591Z,7.47
2023-01-19T15:40:51.776Z,7.80
2023-01-19T15:43:18.655Z,8.43
2023-01-19T15:45:51.525Z,8.10
2023-01-19T15:48:19.930Z,8.10
2023-01-19T15:50:47.818Z,8.13
2023-01-19T15:53:20.024Z,7.60
2023-01-19T15:55:55.483Z,7.75
2023-01-19T15:58:23.449Z,6.93
2023-01-19T16:00:55.651Z,7.30
2023-01-19T16:03:22.709Z,7.10
2023-01-19T16:05:49.655Z,7.38
2023-01-19T16:08:16.908Z,7.80
2023-01-19T16:10:43.952Z,7.90
2023-01-19T16:13:11.804Z,9.00
2023-01-19T16:15:39.728Z,8.07
2023-01-19T16:18:06.585Z,8.10
2023-01-19T16:20:33.318Z,7.67
2023-01-19T16:23:13.777Z,7.63
2023-01-19T16:25:41.365Z,7.22
2023-01-19T16:28:08.292Z,8.00
2023-01-19T16:30:35.067Z,7.60
2023-01-19T16:33:02.254Z,7.47
2023-01-19T16:35:28.828Z,7.97
2023-01-19T16:37:55.407Z,8.98
2023-01-19T16:40:22.051Z,9.18
2023-01-19T16:42:48.711Z,8.63
2023-01-19T16:45:16.297Z,8.23
2023-01-19T16:47:43.488Z,8.23
2023-01-19T16:50:11.785Z,8.48
2023-01-19T16:52:38.828Z,7.70
2023-01-19T16:55:09.292Z,7.90
2023-01-19T16:57:38.817Z,7.63
2023-01-19T17:00:09.377Z,8.10
2023-01-19T17:02:36.259Z,7.78
2023-01-19T17:05:03.343Z,8.13
2023-01-19T17:07:30.201Z,7.07
2023-01-19T17:09:57.484Z,9.13
2023-01-19T17:12:24.474Z,9.07
2023-01-19T17:14:51.338Z,9.40
2023-01-19T17:17:18.258Z,7.72
2023-01-19T17:19:45.225Z,8.30
2023-01-19T17:22:12.848Z,7.53
2023-01-19T17:24:42.285Z,6.75
2023-01-19T17:27:09.459Z,7.43
2023-01-19T17:29:36.138Z,7.65
2023-01-19T17:32:02.939Z,7.45
2023-01-19T17:34:29.939Z,7.73
2023-01-19T17:37:02.742Z,11.32
2023-01-19T17:39:30.334Z,10.55
2023-01-19T17:41:57.207Z,7.60
2023-01-19T17:44:24.027Z,7.38
2023-01-19T17:46:50.636Z,7.87
2023-01-19T17:49:17.269Z,7.15
2023-01-19T17:51:43.939Z,7.05
2023-01-19T17:54:11.288Z,6.78
2023-01-19T17:56:38.665Z,7.18
2023-01-19T17:59:07.764Z,7.37
2023-01-19T18:01:38.174Z,7.20
2023-01-19T18:04:05.436Z,8.27
2023-01-19T18:06:32.224Z,7.43
2023-01-19T18:08:59.397Z,7.60
2023-01-19T18:11:26.819Z,7.50
2023-01-19T18:13:53.681Z,7.53
2023-01-19T18:16:23.869Z,6.43
2023-01-19T18:18:53.564Z,7.72
2023-01-19T18:21:21.770Z,8.15
2023-01-19T18:23:50.119Z,7.60
2023-01-19T18:26:20.389Z,7.70
2023-01-19T18:28:47.887Z,7.70
2023-01-19T18:31:17.748Z,7.15
2023-01-19T18:33:45.381Z,7.30
2023-01-19T18:36:12.830Z,6.80
2023-01-19T18:38:40.361Z,6.72
2023-01-19T18:41:18.181Z,6.50
2023-01-19T18:43:46.588Z,6.85
2023-01-19T18:46:13.731Z,7.30
2023-01-19T18:48:40.508Z,7.07
2023-01-19T18:51:09.374Z,7.28
2023-01-19T18:53:36.398Z,6.85
2023-01-19T18:56:04.499Z,7.40
2023-01-19T18:58:32.496Z,7.00
2023-01-19T19:01:00.620Z,7.03
2023-01-19T19:03:28.221Z,7.15
2023-01-19T19:05:55.393Z,6.68
2023-01-19T19:08:23.240Z,6.38
2023-01-19T19:10:50.559Z,7.28
2023-01-19T19:13:17.911Z,6.90
2023-01-19T19:15:45.092Z,7.38
2023-01-19T19:18:16.509Z,7.10
2023-01-19T19:20:45.281Z,7.97
2023-01-19T19:23:12.321Z,7.43
2023-01-19T19:25:39.275Z,6.57
2023-01-19T19:28:06.661Z,6.25
2023-01-19T19:30:35.677Z,5.90
2023-01-19T19:33:03.074Z,6.20
2023-01-19T19:35:30.790Z,6.32
2023-01-19T19:37:59.737Z,6.30
2023-01-19T19:40:27.609Z,6.05
2023-01-19T19:42:58.789Z,6.53
2023-01-19T19:45:26.963Z,6.40
2023-01-19T19:47:53.909Z,6.43
2023-01-19T19:50:20.921Z,6.97
2023-01-19T19:52:47.939Z,6.88
2023-01-19T19:55:15.350Z,6.70
2023-01-19T19:57:44.719Z,7.55
2023-01-19T20:00:16.034Z,7.07
2023-01-19T20:02:45.604Z,7.93
2023-01-19T20:05:14.194Z,6.65
2023-01-19T20:07:59.863Z,7.20
2023-01-19T20:10:30.115Z,7.05
2023-01-19T20:13:03.929Z,6.32
2023-01-19T20:15:37.184Z,6.70
2023-01-19T20:18:05.676Z,6.13
2023-01-19T20:20:39.934Z,6.82
2023-01-19T20:23:07.257Z,7.50
2023-01-19T20:25:38.799Z,7.03
2023-01-19T20:28:05.638Z,6.93
2023-01-19T20:30:32.803Z,7.63
2023-01-19T20:33:00.195Z,6.82
2023-01-19T20:35:28.781Z,6.97
2023-01-19T20:37:55.942Z,7.30
2023-01-19T20:40:24.290Z,8.27
2023-01-19T20:42:56.056Z,7.75
2023-01-19T20:45:23.224Z,7.13
2023-01-19T20:47:50.136Z,7.28
2023-01-19T20:50:17.544Z,6.80
2023-01-19T20:52:44.547Z,7.10
2023-01-19T20:55:13.447Z,6.70
2023-01-19T20:57:40.633Z,7.25
2023-01-19T21:00:10.182Z,6.68
2023-01-19T21:02:37.322Z,7.47
2023-01-19T21:05:04.576Z,7.03
2023-01-19T21:07:31.741Z,7.15
2023-01-19T21:09:58.479Z,6.75
2023-01-19T21:12:26.163Z,6.55
2023-01-19T21:14:54.901Z,7.13
2023-01-19T21:17:21.962Z,7.07
2023-01-19T21:19:49.270Z,6.63
2023-01-19T21:22:16.325Z,7.20
2023-01-19T21:24:44.550Z,6.88
2023-01-19T21:27:11.806Z,7.20
2023-01-19T21:29:38.730Z,8.30
2023-01-19T21:32:08.078Z,7.63
2023-01-19T21:34:35.603Z,8.00
2023-01-19T21:37:02.437Z,7.93
2023-01-19T21:39:29.459Z,7.25
2023-01-19T21:41:56.521Z,7.83
2023-01-19T21:44:23.695Z,7.53
2023-01-19T21:46:50.550Z,7.22
2023-01-19T21:49:19.129Z,6.85
2023-01-19T21:51:47.980Z,6.38
2023-01-19T21:54:14.819Z,6.90
2023-01-19T21:56:43.259Z,6.78
2023-01-19T21:59:13.101Z,6.40
2023-01-19T22:01:40.416Z,6.45
2023-01-19T22:04:07.184Z,7.18
2023-01-19T22:06:34.157Z,7.33
2023-01-19T22:09:00.928Z,7.28
2023-01-19T22:11:28.530Z,6.57
2023-01-19T22:13:55.838Z,7.20
2023-01-19T22:16:23.292Z,7.18
2023-01-19T22:18:52.881Z,6.53
2023-01-19T22:21:22.634Z,7.63
2023-01-19T22:23:54.977Z,7.70
2023-01-19T22:26:22.034Z,7.03
2023-01-19T22:28:48.687Z,7.18
2023-01-19T22:31:17.924Z,7.07
2023-01-19T22:33:45.352Z,7.22
2023-01-19T22:36:26.188Z,7.00
2023-01-19T22:38:57.215Z,7.70
2023-01-19T22:41:29.201Z,7.35
2023-01-19T22:43:57.903Z,7.37
2023-01-19T22:46:27.733Z,7.15
2023-01-19T22:48:55.643Z,7.78
2023-01-19T22:51:23.255Z,7.88
2023-01-19T22:53:50.232Z,7.50
2023-01-19T22:56:21.730Z,7.40
2023-01-19T22:58:49.151Z,7.25
2023-01-19T23:01:28.262Z,7.88
2023-01-19T23:03:55.312Z,7.97
2023-01-19T23:06:26.103Z,8.18
2023-01-19T23:08:54.857Z,7.60
2023-01-19T23:11:27.744Z,7.38
2023-01-19T23:13:54.496Z,7.47
2023-01-19T23:16:21.534Z,7.03
2023-01-19T23:18:52.073Z,7.13
2023-01-19T23:21:22.071Z,7.73
2023-01-19T23:23:48.886Z,7.00
2023-01-19T23:26:18.685Z,6.97
2023-01-19T23:28:46.424Z,7.22
2023-01-19T23:31:13.145Z,6.93
2023-01-19T23:33:41.486Z,7.00
2023-01-19T23:36:08.612Z,7.07
2023-01-19T23:38:35.276Z,7.10
2023-01-19T23:41:01.831Z,6.72
2023-01-19T23:43:28.612Z,6.50
2023-01-19T23:45:55.309Z,6.73
2023-01-19T23:48:22.027Z,7.00
2023-01-19T23:50:48.690Z,6.65
2023-01-19T23:53:15.318Z,6.18
2023-01-19T23:55:42.774Z,6.47
2023-01-19T23:58:09.461Z,6.33
